Viking Amber — 9V7985 — position and weather

sailwx.info

Track history (hours):
 
Tides and Currents Weather Stations Pressure Air Temp Water Temp Dewpoint Dewpoint Depression Visibility Wind Speed Wind Dir Waves Ship Positions

Viking Amber

Last reported at 2015-Jul-30 18:33 UTC. Time now 2015-Aug-02 20:24 UTC.
Position N 35°01' E 139°33'.

Length 167 m; draft 8.1 m.

Type: Other ship. MMSI: 563255000.

Date/timePositionNaut miles runAvg speedWind from/ knotsBaromVisibWave heightAir tempDewpointWater temp
2015-Jul-30 18:33N 35°01' E 139°33'1515.0
2015-Jul-30 17:33N 35°12' E 139°46'1211.9
2015-Jul-30 16:33N 35°23' E 139°42'4 3.8
2015-Jul-30 15:33N 35°27' E 139°41'0 0.0
2015-Jul-30 14:33N 35°27' E 139°41'0 0.0
2015-Jul-30 13:33N 35°27' E 139°41'0 0.0
2015-Jul-30 12:33N 35°27' E 139°41'0 0.0
2015-Jul-30 11:33N 35°27' E 139°41'0 0.0
2015-Jul-30 10:33N 35°27' E 139°41'0 0.0
2015-Jul-30 09:33N 35°27' E 139°41'0 0.0
2015-Jul-30 08:33N 35°27' E 139°41'0 0.0
2015-Jul-30 07:33N 35°27' E 139°41'0 0.0
2015-Jul-30 06:33N 35°27' E 139°41'0 0.0
2015-Jul-30 05:33N 35°27' E 139°41'0 0.0
2015-Jul-30 04:33N 35°27' E 139°41'2 1.6
2015-Jul-30 03:34N 35°26' E 139°42'1 1.5
2015-Jul-30 02:33N 35°25' E 139°41'0 0.0
2015-Jul-30 01:34N 35°25' E 139°41'0 0.0
2015-Jul-30 00:33N 35°25' E 139°41'0 0.0
2015-Jul-29 23:34N 35°25' E 139°41'0 0.0
2015-Jul-29 22:34N 35°25' E 139°41'4 4.2
2015-Jul-29 21:34N 35°22' E 139°43'1110.6
2015-Jul-29 20:33N 35°11' E 139°47'1313.0
2015-Jul-29 19:33N 34°59' E 139°42'1512.7
2015-Jul-29 18:22N 34°45' E 139°35'7 7.7
2015-Jul-29 17:27N 34°39' E 139°30'1512.6
2015-Jul-29 16:14N 34°35' E 139°13'215 9.0
2015-Jul-28 16:16N 33°53' E 134°57'1014.1
2015-Jul-28 15:33N 34°03' E 134°58'1413.9
2015-Jul-28 14:33N 34°17' E 134°58'1615.8
2015-Jul-28 13:33N 34°30' E 135°09'1413.5
2015-Jul-28 12:33N 34°36' E 135°23'1 0.7
2015-Jul-28 11:30N 34°37' E 135°24'0 0.0
2015-Jul-28 10:30N 34°37' E 135°24'0 0.0
2015-Jul-28 09:30N 34°37' E 135°24'0 0.0
2015-Jul-28 08:30N 34°37' E 135°24'0 0.0
2015-Jul-28 07:30N 34°37' E 135°24'0 0.0
2015-Jul-28 06:30N 34°37' E 135°24'0 0.0
2015-Jul-28 05:30N 34°37' E 135°24'0 0.0
2015-Jul-28 04:24N 34°37' E 135°24'0 0.0
2015-Jul-28 03:30N 34°37' E 135°24'1 0.9
2015-Jul-28 02:33N 34°36' E 135°23'4 3.5
2015-Jul-28 01:28N 34°36' E 135°19'0 0.0
2015-Jul-28 00:28N 34°36' E 135°19'0 0.0
2015-Jul-27 23:28N 34°36' E 135°19'0 0.0
2015-Jul-27 22:28N 34°36' E 135°19'0 0.0
2015-Jul-27 21:28N 34°36' E 135°19'0 0.0
2015-Jul-27 20:28N 34°36' E 135°19'0 0.0
2015-Jul-27 19:28N 34°36' E 135°19'0 0.0
2015-Jul-27 18:28N 34°36' E 135°19'0 0.0
2015-Jul-27 17:28N 34°36' E 135°19'0 0.0
2015-Jul-27 16:28N 34°36' E 135°19'0 0.0
2015-Jul-27 15:28N 34°36' E 135°19'0 0.0
2015-Jul-27 14:28N 34°36' E 135°19'0 0.0
2015-Jul-27 13:28N 34°36' E 135°19'0 0.0
2015-Jul-27 12:28N 34°36' E 135°19'0 0.0
2015-Jul-27 11:28N 34°36' E 135°19'0 0.0
2015-Jul-27 10:28N 34°36' E 135°19'0 0.0
2015-Jul-27 09:04N 34°36' E 135°19'0 0.0
2015-Jul-27 08:04N 34°36' E 135°19'0 0.1
2015-Jul-27 07:22N 34°36' E 135°19'0 0.1
2015-Jul-27 06:28N 34°36' E 135°19'0 0.1
2015-Jul-27 05:28N 34°36' E 135°19'0 0.0
2015-Jul-27 04:28N 34°36' E 135°19'0 0.0
2015-Jul-27 03:28N 34°36' E 135°19'0 0.0
2015-Jul-27 02:28N 34°36' E 135°19'0 0.0
2015-Jul-27 01:28N 34°36' E 135°19'0 0.0
2015-Jul-27 00:16N 34°36' E 135°19'0 0.0
2015-Jul-26 23:16N 34°36' E 135°19'0 0.0
2015-Jul-26 22:28N 34°36' E 135°19'0 0.0
2015-Jul-26 21:22N 34°36' E 135°19'0 0.1
2015-Jul-26 20:28N 34°36' E 135°19'0 0.0
2015-Jul-26 19:28N 34°36' E 135°19'0 0.0
2015-Jul-26 18:28N 34°36' E 135°19'0 0.0
2015-Jul-26 17:28N 34°36' E 135°19'0 0.0
2015-Jul-26 16:22N 34°36' E 135°19'0 0.0
2015-Jul-26 15:28N 34°36' E 135°19'0 0.0
2015-Jul-26 14:28N 34°36' E 135°19'0 0.0
2015-Jul-26 13:28N 34°36' E 135°19'0 0.0
2015-Jul-26 12:22N 34°36' E 135°19'0 0.0
2015-Jul-26 11:22N 34°36' E 135°19'0 0.1
2015-Jul-26 10:28N 34°36' E 135°19'0 0.0
2015-Jul-26 09:28N 34°36' E 135°19'0 0.0
2015-Jul-26 08:16N 34°36' E 135°19'0 0.0
2015-Jul-26 07:28N 34°36' E 135°19'0 0.0
2015-Jul-26 06:28N 34°36' E 135°19'0 0.0
2015-Jul-26 05:16N 34°36' E 135°19'5 6.4
2015-Jul-26 04:33N 34°33' E 135°15'1616.0
2015-Jul-26 03:33N 34°21' E 135°02'1413.5
2015-Jul-26 02:33N 34°08' E 134°60'  
Track history (hours):
 
Tides and Currents Weather Stations Pressure Air Temp Water Temp Dewpoint Dewpoint Depression Visibility Wind Speed Wind Dir Waves Ship Positions

Viking Amber

Last reported at 2015-Jul-30 18:33 UTC. Time now 2015-Aug-02 20:24 UTC.
Position N 35°01' E 139°33'.

Length 167 m; draft 8.1 m.

Type: Other ship. MMSI: 563255000.

Date/timePositionNaut miles runAvg speedWind from/ knotsBaromVisibWave heightAir tempDewpointWater temp
2015-Jul-30 18:33N 35°01' E 139°33'1515.0
2015-Jul-30 17:33N 35°12' E 139°46'1211.9
2015-Jul-30 16:33N 35°23' E 139°42'4 3.8
2015-Jul-30 15:33N 35°27' E 139°41'0 0.0
2015-Jul-30 14:33N 35°27' E 139°41'0 0.0
2015-Jul-30 13:33N 35°27' E 139°41'0 0.0
2015-Jul-30 12:33N 35°27' E 139°41'0 0.0
2015-Jul-30 11:33N 35°27' E 139°41'0 0.0
2015-Jul-30 10:33N 35°27' E 139°41'0 0.0
2015-Jul-30 09:33N 35°27' E 139°41'0 0.0
2015-Jul-30 08:33N 35°27' E 139°41'0 0.0
2015-Jul-30 07:33N 35°27' E 139°41'0 0.0
2015-Jul-30 06:33N 35°27' E 139°41'0 0.0
2015-Jul-30 05:33N 35°27' E 139°41'0 0.0
2015-Jul-30 04:33N 35°27' E 139°41'2 1.6
2015-Jul-30 03:34N 35°26' E 139°42'1 1.5
2015-Jul-30 02:33N 35°25' E 139°41'0 0.0
2015-Jul-30 01:34N 35°25' E 139°41'0 0.0
2015-Jul-30 00:33N 35°25' E 139°41'0 0.0
2015-Jul-29 23:34N 35°25' E 139°41'0 0.0
2015-Jul-29 22:34N 35°25' E 139°41'4 4.2
2015-Jul-29 21:34N 35°22' E 139°43'1110.6
2015-Jul-29 20:33N 35°11' E 139°47'1313.0
2015-Jul-29 19:33N 34°59' E 139°42'1512.7
2015-Jul-29 18:22N 34°45' E 139°35'7 7.7
2015-Jul-29 17:27N 34°39' E 139°30'1512.6
2015-Jul-29 16:14N 34°35' E 139°13'215 9.0
2015-Jul-28 16:16N 33°53' E 134°57'1014.1
2015-Jul-28 15:33N 34°03' E 134°58'1413.9
2015-Jul-28 14:33N 34°17' E 134°58'1615.8
2015-Jul-28 13:33N 34°30' E 135°09'1413.5
2015-Jul-28 12:33N 34°36' E 135°23'1 0.7
2015-Jul-28 11:30N 34°37' E 135°24'0 0.0
2015-Jul-28 10:30N 34°37' E 135°24'0 0.0
2015-Jul-28 09:30N 34°37' E 135°24'0 0.0
2015-Jul-28 08:30N 34°37' E 135°24'0 0.0
2015-Jul-28 07:30N 34°37' E 135°24'0 0.0
2015-Jul-28 06:30N 34°37' E 135°24'0 0.0
2015-Jul-28 05:30N 34°37' E 135°24'0 0.0
2015-Jul-28 04:24N 34°37' E 135°24'0 0.0
2015-Jul-28 03:30N 34°37' E 135°24'1 0.9
2015-Jul-28 02:33N 34°36' E 135°23'4 3.5
2015-Jul-28 01:28N 34°36' E 135°19'0 0.0
2015-Jul-28 00:28N 34°36' E 135°19'0 0.0
2015-Jul-27 23:28N 34°36' E 135°19'0 0.0
2015-Jul-27 22:28N 34°36' E 135°19'0 0.0
2015-Jul-27 21:28N 34°36' E 135°19'0 0.0
2015-Jul-27 20:28N 34°36' E 135°19'0 0.0
2015-Jul-27 19:28N 34°36' E 135°19'0 0.0
2015-Jul-27 18:28N 34°36' E 135°19'0 0.0
2015-Jul-27 17:28N 34°36' E 135°19'0 0.0
2015-Jul-27 16:28N 34°36' E 135°19'0 0.0
2015-Jul-27 15:28N 34°36' E 135°19'0 0.0
2015-Jul-27 14:28N 34°36' E 135°19'0 0.0
2015-Jul-27 13:28N 34°36' E 135°19'0 0.0
2015-Jul-27 12:28N 34°36' E 135°19'0 0.0
2015-Jul-27 11:28N 34°36' E 135°19'0 0.0
2015-Jul-27 10:28N 34°36' E 135°19'0 0.0
2015-Jul-27 09:04N 34°36' E 135°19'0 0.0
2015-Jul-27 08:04N 34°36' E 135°19'0 0.1
2015-Jul-27 07:22N 34°36' E 135°19'0 0.1
2015-Jul-27 06:28N 34°36' E 135°19'0 0.1
2015-Jul-27 05:28N 34°36' E 135°19'0 0.0
2015-Jul-27 04:28N 34°36' E 135°19'0 0.0
2015-Jul-27 03:28N 34°36' E 135°19'0 0.0
2015-Jul-27 02:28N 34°36' E 135°19'0 0.0
2015-Jul-27 01:28N 34°36' E 135°19'0 0.0
2015-Jul-27 00:16N 34°36' E 135°19'0 0.0
2015-Jul-26 23:16N 34°36' E 135°19'0 0.0
2015-Jul-26 22:28N 34°36' E 135°19'0 0.0
2015-Jul-26 21:22N 34°36' E 135°19'0 0.1
2015-Jul-26 20:28N 34°36' E 135°19'0 0.0
2015-Jul-26 19:28N 34°36' E 135°19'0 0.0
2015-Jul-26 18:28N 34°36' E 135°19'0 0.0
2015-Jul-26 17:28N 34°36' E 135°19'0 0.0
2015-Jul-26 16:22N 34°36' E 135°19'0 0.0
2015-Jul-26 15:28N 34°36' E 135°19'0 0.0
2015-Jul-26 14:28N 34°36' E 135°19'0 0.0
2015-Jul-26 13:28N 34°36' E 135°19'0 0.0
2015-Jul-26 12:22N 34°36' E 135°19'0 0.0
2015-Jul-26 11:22N 34°36' E 135°19'0 0.1
2015-Jul-26 10:28N 34°36' E 135°19'0 0.0
2015-Jul-26 09:28N 34°36' E 135°19'0 0.0
2015-Jul-26 08:16N 34°36' E 135°19'0 0.0
2015-Jul-26 07:28N 34°36' E 135°19'0 0.0
2015-Jul-26 06:28N 34°36' E 135°19'0 0.0
2015-Jul-26 05:16N 34°36' E 135°19'5 6.4
2015-Jul-26 04:33N 34°33' E 135°15'1616.0
2015-Jul-26 03:33N 34°21' E 135°02'1413.5
2015-Jul-26 02:33N 34°08' E 134°60'  

Dump ship's entire track history